Time;durP1;ratioP1;P1;durP2;ratioP2;P2;SDS_P1;SDS_P2;PMS_P1;PMS_P2;Temp;Humidity;BMP_temperature;BMP_pressure;BME280_temperature;BME280_humidity;BME280_pressure;Samples;Min_cycle;Max_cycle;Signal;HPM_P1;HPM_P2
2022/12/05 00:02:14;;;;;;;62.30;29.53;;;;;;;;;;5043703;28;20029;-76
2022/12/05 00:04:40;;;;;;;57.70;29.10;;;;;;;;;;5059228;28;20025;-77
2022/12/05 00:07:06;;;;;;;64.37;29.47;;;;;;;;;;5056086;28;20739;-77
2022/12/05 00:09:40;;;;;;;60.90;29.97;;;;;;;;;;5062828;28;20036;-75
2022/12/05 00:12:06;;;;;;;60.90;28.60;;;;;;;;;;5059753;28;20284;-75
2022/12/05 00:14:32;;;;;;;62.37;30.30;;;;;;;;;;5043815;28;20290;-76
2022/12/05 00:17:00;;;;;;;63.40;31.90;;;;;;;;;;5044673;28;20029;-76
2022/12/05 00:19:26;;;;;;;61.87;29.50;;;;;;;;;;5044216;28;20298;-76
2022/12/05 00:21:52;;;;;;;58.43;30.23;;;;;;;;;;5047654;28;20272;-76
2022/12/05 00:24:19;;;;;;;57.80;30.07;;;;;;;;;;5058900;28;20029;-76
2022/12/05 00:26:45;;;;;;;64.53;31.00;;;;;;;;;;5043461;28;20294;-74
2022/12/05 00:29:11;;;;;;;62.27;29.83;;;;;;;;;;5043129;28;20286;-76
2022/12/05 00:31:38;;;;;;;57.87;28.87;;;;;;;;;;5054682;28;20369;-76
2022/12/05 00:34:04;;;;;;;56.17;27.67;;;;;;;;;;5043563;28;20366;-76
2022/12/05 00:36:35;;;;;;;59.47;29.97;;;;;;;;;;5058384;28;20029;-77
2022/12/05 00:39:03;;;;;;;58.87;28.00;;;;;;;;;;5059405;28;20108;-74
2022/12/05 00:41:30;;;;;;;59.30;28.83;;;;;;;;;;5042206;28;20647;-76
2022/12/05 00:44:00;;;;;;;59.37;28.60;;;;;;;;;;5042708;28;20271;-76
2022/12/05 00:46:27;;;;;;;55.47;27.43;;;;;;;;;;5044482;28;20276;-74
2022/12/05 00:48:56;;;;;;;55.20;27.90;;;;;;;;;;5043302;28;20272;-74
2022/12/05 00:51:25;;;;;;;54.47;26.17;;;;;;;;;;5042102;28;20263;-75
2022/12/05 00:53:52;;;;;;;54.73;26.67;;;;;;;;;;5060562;28;20291;-75
2022/12/05 00:56:19;;;;;;;56.23;27.03;;;;;;;;;;5054905;28;20311;-75
2022/12/05 00:58:45;;;;;;;54.10;26.57;;;;;;;;;;5041804;28;20286;-75
2022/12/05 01:01:20;;;;;;;51.13;26.03;;;;;;;;;;5042996;28;20024;-76
2022/12/05 01:03:46;;;;;;;57.00;27.40;;;;;;;;;;5043074;28;20345;-76
2022/12/05 01:06:13;;;;;;;56.83;27.77;;;;;;;;;;5042827;28;20353;-76
2022/12/05 01:08:39;;;;;;;53.53;26.90;;;;;;;;;;5058592;28;20278;-76
2022/12/05 01:11:06;;;;;;;52.07;26.40;;;;;;;;;;5044820;28;20367;-74
2022/12/05 01:13:32;;;;;;;59.00;28.27;;;;;;;;;;5058941;28;21015;-76
2022/12/05 01:15:58;;;;;;;53.40;27.17;;;;;;;;;;5044555;28;20280;-77
2022/12/05 01:18:25;;;;;;;51.70;26.47;;;;;;;;;;5065003;28;20255;-77
2022/12/05 01:20:53;;;;;;;59.53;27.47;;;;;;;;;;5054091;28;20283;-75
2022/12/05 01:23:21;;;;;;;50.70;25.57;;;;;;;;;;5054075;28;20276;-77
2022/12/05 01:25:48;;;;;;;51.77;25.90;;;;;;;;;;5056930;28;20263;-76
2022/12/05 01:28:14;;;;;;;49.27;25.70;;;;;;;;;;5045830;28;20319;-76
2022/12/05 01:30:42;;;;;;;52.23;26.10;;;;;;;;;;5064550;28;20279;-77
2022/12/05 01:33:08;;;;;;;50.50;24.83;;;;;;;;;;5060070;28;20084;-77
2022/12/05 01:35:35;;;;;;;50.37;25.50;;;;;;;;;;5053649;28;20028;-76
2022/12/05 01:38:01;;;;;;;54.00;26.23;;;;;;;;;;5054040;28;20025;-77
2022/12/05 01:40:27;;;;;;;53.80;25.20;;;;;;;;;;5056121;28;20314;-76
2022/12/05 01:42:53;;;;;;;51.00;24.40;;;;;;;;;;5053863;28;20021;-76
2022/12/05 01:45:35;;;;;;;44.80;24.30;;;;;;;;;;5056726;28;20277;-76
2022/12/05 01:48:03;;;;;;;48.10;26.00;;;;;;;;;;5062320;28;20020;-76
2022/12/05 01:50:29;;;;;;;50.57;24.93;;;;;;;;;;5068351;28;20271;-77
2022/12/05 01:52:55;;;;;;;46.83;24.33;;;;;;;;;;5052861;28;20286;-77
2022/12/05 01:55:21;;;;;;;52.17;25.03;;;;;;;;;;5065583;28;20171;-77
2022/12/05 01:57:49;;;;;;;47.07;24.07;;;;;;;;;;5053710;28;20124;-77
2022/12/05 02:00:19;;;;;;;48.53;25.10;;;;;;;;;;5044071;28;20048;-75
2022/12/05 02:03:04;;;;;;;48.70;24.47;;;;;;;;;;5057097;28;20086;-77
2022/12/05 02:05:31;;;;;;;49.60;24.30;;;;;;;;;;5071822;28;20267;-77
2022/12/05 02:07:58;;;;;;;48.30;23.97;;;;;;;;;;5060202;28;20289;-76
2022/12/05 02:10:26;;;;;;;43.50;22.87;;;;;;;;;;5060852;28;20252;-77
2022/12/05 02:12:52;;;;;;;51.83;26.27;;;;;;;;;;5065488;28;20264;-77
2022/12/05 02:15:18;;;;;;;53.10;25.50;;;;;;;;;;5068494;28;20119;-77
2022/12/05 02:17:53;;;;;;;50.47;25.37;;;;;;;;;;5069728;28;20025;-76
2022/12/05 02:20:24;;;;;;;48.47;24.80;;;;;;;;;;5054817;28;20290;-77
2022/12/05 02:22:53;;;;;;;44.30;23.13;;;;;;;;;;5067657;28;20021;-77
2022/12/05 02:25:39;;;;;;;46.40;23.60;;;;;;;;;;5050309;28;20040;-76
2022/12/05 02:28:14;;;;;;;56.20;25.47;;;;;;;;;;5084933;28;20057;-76
2022/12/05 02:30:40;;;;;;;49.53;25.50;;;;;;;;;;5059735;28;20029;-76
2022/12/05 02:33:06;;;;;;;54.10;23.63;;;;;;;;;;5060719;28;20336;-75
2022/12/05 02:35:35;;;;;;;50.73;25.93;;;;;;;;;;5061674;28;20453;-75
2022/12/05 02:38:40;;;;;;;50.33;24.17;;;;;;;;;;5067793;28;20734;-76
2022/12/05 02:41:16;;;;;;;55.60;24.37;;;;;;;;;;5013301;28;20048;-76
2022/12/05 02:43:42;;;;;;;55.50;25.50;;;;;;;;;;5008701;28;20026;-75
2022/12/05 02:46:11;;;;;;;49.80;24.00;;;;;;;;;;4995940;28;20470;-76
2022/12/05 02:48:38;;;;;;;48.00;24.53;;;;;;;;;;4993410;28;20120;-77
2022/12/05 02:51:04;;;;;;;52.47;24.87;;;;;;;;;;5018936;28;20273;-77
2022/12/05 02:53:31;;;;;;;56.17;26.60;;;;;;;;;;5002637;28;20054;-76
2022/12/05 02:55:57;;;;;;;54.73;25.60;;;;;;;;;;5002607;28;20249;-76
2022/12/05 02:58:35;;;;;;;56.00;25.57;;;;;;;;;;5000817;28;20288;-76
2022/12/05 03:01:02;;;;;;;49.60;24.70;;;;;;;;;;5013749;28;20356;-75
2022/12/05 03:03:28;;;;;;;49.70;24.30;;;;;;;;;;5016260;28;20312;-74
2022/12/05 03:06:13;;;;;;;52.57;25.10;;;;;;;;;;5002278;28;20740;-75
2022/12/05 03:08:45;;;;;;;47.10;23.57;;;;;;;;;;5018049;28;20257;-76
2022/12/05 03:11:11;;;;;;;57.43;26.13;;;;;;;;;;5006161;28;20305;-75
2022/12/05 03:13:43;;;;;;;54.70;25.87;;;;;;;;;;5058387;28;20263;-76
2022/12/05 03:16:14;;;;;;;55.05;26.98;;;;;;;;;;5057836;28;20270;-75
2022/12/05 03:18:44;;;;;;;50.17;24.23;;;;;;;;;;5073512;28;20025;-75
2022/12/05 03:21:15;;;;;;;52.10;25.90;;;;;;;;;;5072518;28;20708;-75
2022/12/05 03:23:44;;;;;;;52.83;26.80;;;;;;;;;;5056459;28;20256;-76
2022/12/05 03:26:13;;;;;;;48.50;25.30;;;;;;;;;;5056237;28;20267;-74
2022/12/05 03:28:58;;;;;;;55.30;26.60;;;;;;;;;;5046146;28;20264;-76
2022/12/05 03:31:53;;;;;;;55.90;27.00;;;;;;;;;;5053326;28;20327;-76
2022/12/05 03:34:37;;;;;;;53.70;26.57;;;;;;;;;;5047804;28;20259;-74
2022/12/05 03:37:06;;;;;;;50.67;24.63;;;;;;;;;;5046910;28;20287;-78
2022/12/05 03:39:36;;;;;;;55.37;24.37;;;;;;;;;;5056313;28;20770;-77
2022/12/05 03:42:08;;;;;;;49.77;23.97;;;;;;;;;;5056729;28;20272;-78
2022/12/05 03:44:36;;;;;;;52.53;25.20;;;;;;;;;;5050635;28;20292;-75
2022/12/05 03:47:10;;;;;;;54.53;26.80;;;;;;;;;;5063289;28;20267;-75
2022/12/05 03:49:37;;;;;;;53.33;23.90;;;;;;;;;;5057890;28;20389;-76
2022/12/05 03:52:26;;;;;;;49.67;23.43;;;;;;;;;;5049926;28;20271;-75
2022/12/05 03:55:04;;;;;;;51.07;23.13;;;;;;;;;;5064112;28;20333;-75
2022/12/05 03:57:35;;;;;;;52.83;25.10;;;;;;;;;;5055684;28;20287;-75
2022/12/05 04:00:04;;;;;;;52.40;23.93;;;;;;;;;;5055601;28;20364;-76
2022/12/05 04:02:49;;;;;;;50.43;24.20;;;;;;;;;;5056027;28;20352;-76
2022/12/05 04:05:28;;;;;;;49.87;24.27;;;;;;;;;;5059031;28;20282;-76
2022/12/05 04:07:59;;;;;;;44.50;23.97;;;;;;;;;;5056700;28;20596;-76
2022/12/05 04:10:27;;;;;;;48.67;24.33;;;;;;;;;;5056466;28;20263;-76
2022/12/05 04:12:54;;;;;;;47.47;22.93;;;;;;;;;;5058871;28;20321;-76
2022/12/05 04:15:23;;;;;;;46.50;23.93;;;;;;;;;;5055255;28;20313;-76
2022/12/05 04:17:49;;;;;;;53.40;25.30;;;;;;;;;;5061079;28;20614;-76
2022/12/05 04:23:03;;;;;;;53.43;24.90;;;;;;;;;;5050040;28;20490;-77
2022/12/05 04:25:32;;;;;;;53.63;24.07;;;;;;;;;;5063824;28;20306;-76
2022/12/05 04:28:04;;;;;;;52.63;24.83;;;;;;;;;;5057940;28;20310;-77
2022/12/05 04:30:33;;;;;;;56.88;24.02;;;;;;;;;;5054826;28;20286;-76
2022/12/05 04:33:02;;;;;;;58.70;26.80;;;;;;;;;;5060891;28;20057;-76
2022/12/05 04:35:31;;;;;;;55.60;25.57;;;;;;;;;;5056807;28;20639;-76
2022/12/05 04:38:06;;;;;;;55.47;25.30;;;;;;;;;;5067559;28;20270;-76
2022/12/05 04:40:35;;;;;;;51.80;23.93;;;;;;;;;;5058990;28;20280;-75
2022/12/05 04:43:02;;;;;;;49.73;24.83;;;;;;;;;;5055719;28;20398;-76
2022/12/05 04:45:29;;;;;;;55.13;24.23;;;;;;;;;;5070157;28;20258;-76
2022/12/05 04:47:58;;;;;;;50.50;24.50;;;;;;;;;;5054842;28;20739;-75
2022/12/05 04:50:26;;;;;;;49.80;23.40;;;;;;;;;;5054558;28;20267;-76
2022/12/05 04:52:55;;;;;;;52.80;23.47;;;;;;;;;;5058298;28;20350;-76
2022/12/05 04:55:27;;;;;;;56.37;27.13;;;;;;;;;;5061526;28;20725;-76
2022/12/05 04:57:55;;;;;;;49.05;23.05;;;;;;;;;;5066111;28;20263;-76
2022/12/05 05:00:22;;;;;;;46.70;23.10;;;;;;;;;;5060576;28;20051;-75
2022/12/05 05:02:51;;;;;;;52.23;24.67;;;;;;;;;;5058456;28;20268;-76
2022/12/05 05:05:18;;;;;;;48.70;24.50;;;;;;;;;;5053378;28;20318;-75
2022/12/05 05:07:52;;;;;;;50.00;22.90;;;;;;;;;;5059542;28;20672;-76
2022/12/05 05:10:28;;;;;;;53.77;23.97;;;;;;;;;;5059692;28;20774;-77
2022/12/05 05:12:55;;;;;;;53.30;24.50;;;;;;;;;;5054970;28;20260;-77
2022/12/05 05:15:21;;;;;;;47.13;24.43;;;;;;;;;;5047948;28;20275;-76
2022/12/05 05:17:47;;;;;;;50.53;23.27;;;;;;;;;;5052876;28;20282;-76
2022/12/05 05:20:26;;;;;;;56.70;23.27;;;;;;;;;;5042999;28;20291;-76
2022/12/05 05:22:55;;;;;;;53.47;24.57;;;;;;;;;;5047605;28;20283;-75
2022/12/05 05:25:23;;;;;;;54.77;25.60;;;;;;;;;;5055554;28;20393;-76
2022/12/05 05:27:50;;;;;;;52.17;23.03;;;;;;;;;;5060351;28;20584;-75
2022/12/05 05:30:16;;;;;;;63.33;25.50;;;;;;;;;;5055579;28;20740;-76
2022/12/05 05:32:42;;;;;;;54.43;24.53;;;;;;;;;;5050992;28;20287;-76
2022/12/05 05:35:08;;;;;;;57.47;27.27;;;;;;;;;;5057514;28;20318;-75
2022/12/05 05:37:37;;;;;;;51.63;23.63;;;;;;;;;;5040616;28;20295;-76
2022/12/05 05:40:03;;;;;;;54.53;25.33;;;;;;;;;;5056187;28;20296;-76
2022/12/05 05:42:31;;;;;;;56.47;26.43;;;;;;;;;;5040771;28;20276;-76
2022/12/05 05:44:57;;;;;;;56.13;25.47;;;;;;;;;;5054430;28;20267;-76
2022/12/05 05:47:23;;;;;;;55.90;25.70;;;;;;;;;;5057072;28;20337;-76
2022/12/05 05:49:49;;;;;;;58.87;26.80;;;;;;;;;;5040545;28;20338;-76
2022/12/05 05:52:16;;;;;;;58.17;26.87;;;;;;;;;;5055574;28;21903;-75
2022/12/05 05:54:44;;;;;;;61.53;26.13;;;;;;;;;;5055896;28;20748;-75
2022/12/05 05:57:12;;;;;;;59.53;25.73;;;;;;;;;;5039049;28;20283;-76
2022/12/05 05:59:43;;;;;;;56.90;26.47;;;;;;;;;;5041134;28;20384;-75
2022/12/05 06:02:09;;;;;;;62.20;25.73;;;;;;;;;;5052521;28;20276;-76
2022/12/05 06:04:35;;;;;;;63.57;26.40;;;;;;;;;;5041780;28;20317;-75
2022/12/05 06:07:01;;;;;;;61.97;29.00;;;;;;;;;;5041269;28;20283;-76
2022/12/05 06:09:27;;;;;;;68.97;27.63;;;;;;;;;;5041256;28;20291;-75
2022/12/05 06:11:53;;;;;;;77.23;29.17;;;;;;;;;;5039209;28;20290;-76
2022/12/05 06:14:19;;;;;;;74.00;27.83;;;;;;;;;;5040468;28;20276;-76
2022/12/05 06:16:45;;;;;;;62.53;26.67;;;;;;;;;;5054137;28;20333;-76
2022/12/05 06:19:11;;;;;;;68.07;26.57;;;;;;;;;;5050356;28;20291;-75
2022/12/05 06:21:37;;;;;;;68.57;28.40;;;;;;;;;;5055102;28;20275;-76
2022/12/05 06:24:03;;;;;;;72.10;27.23;;;;;;;;;;5054830;28;20318;-75
2022/12/05 06:26:29;;;;;;;64.63;26.57;;;;;;;;;;5054750;28;20286;-76
2022/12/05 06:28:55;;;;;;;62.13;27.33;;;;;;;;;;5054208;28;20272;-76
2022/12/05 06:31:23;;;;;;;68.97;27.27;;;;;;;;;;5054546;28;20344;-76
2022/12/05 06:33:51;;;;;;;68.77;29.17;;;;;;;;;;5056150;28;20332;-76
2022/12/05 06:36:19;;;;;;;75.67;28.73;;;;;;;;;;5040091;28;20279;-76
2022/12/05 06:38:45;;;;;;;78.53;29.27;;;;;;;;;;5040145;28;20291;-77
2022/12/05 06:41:14;;;;;;;75.57;27.57;;;;;;;;;;5056530;28;20283;-76
2022/12/05 06:43:40;;;;;;;67.17;27.47;;;;;;;;;;5047099;28;20287;-75
2022/12/05 06:46:06;;;;;;;76.23;29.53;;;;;;;;;;5039449;28;20298;-76
2022/12/05 06:48:33;;;;;;;73.83;29.20;;;;;;;;;;5056491;28;20283;-75
2022/12/05 06:50:59;;;;;;;76.87;29.03;;;;;;;;;;5042343;28;20294;-76
2022/12/05 06:53:27;;;;;;;72.90;29.73;;;;;;;;;;5041880;28;20355;-76
2022/12/05 06:56:16;;;;;;;77.53;30.60;;;;;;;;;;5055267;28;20280;-76
2022/12/05 06:58:43;;;;;;;68.67;29.67;;;;;;;;;;5056362;28;20818;-76
2022/12/05 07:04:01;;;;;;;79.63;29.53;;;;;;;;;;5042145;28;20287;-76
2022/12/05 07:06:27;;;;;;;74.17;28.53;;;;;;;;;;5040745;28;20684;-76
2022/12/05 07:08:53;;;;;;;66.17;29.03;;;;;;;;;;5042154;28;20341;-76
2022/12/05 07:11:19;;;;;;;72.30;28.27;;;;;;;;;;5042004;28;20287;-76
2022/12/05 07:13:45;;;;;;;72.67;28.87;;;;;;;;;;5045008;28;20268;-76
2022/12/05 07:16:11;;;;;;;76.27;28.90;;;;;;;;;;5071738;28;20287;-76
2022/12/05 07:18:37;;;;;;;81.03;30.50;;;;;;;;;;5055866;28;20294;-76
2022/12/05 07:21:05;;;;;;;74.10;30.53;;;;;;;;;;5051838;28;20279;-76
2022/12/05 07:23:32;;;;;;;83.93;30.13;;;;;;;;;;5054691;28;20317;-76
2022/12/05 07:25:58;;;;;;;76.50;30.93;;;;;;;;;;5058830;28;20271;-76
2022/12/05 07:28:26;;;;;;;79.90;32.40;;;;;;;;;;5056181;28;20263;-76
2022/12/05 07:31:03;;;;;;;78.77;32.80;;;;;;;;;;5061321;28;20272;-76
2022/12/05 07:33:29;;;;;;;83.53;34.00;;;;;;;;;;5056719;28;20267;-74
2022/12/05 07:36:01;;;;;;;79.83;33.23;;;;;;;;;;5058399;28;20267;-77
2022/12/05 07:38:27;;;;;;;84.43;32.20;;;;;;;;;;5059442;28;20271;-75
2022/12/05 07:40:56;;;;;;;75.20;32.27;;;;;;;;;;5052056;28;20026;-76
2022/12/05 07:43:27;;;;;;;79.17;32.93;;;;;;;;;;5057735;28;20343;-76
2022/12/05 07:45:53;;;;;;;77.13;31.60;;;;;;;;;;5060514;28;20334;-75
2022/12/05 07:48:19;;;;;;;84.13;32.93;;;;;;;;;;5060603;28;20263;-75
2022/12/05 07:50:45;;;;;;;80.50;32.10;;;;;;;;;;5061377;28;20275;-75
2022/12/05 07:53:11;;;;;;;82.87;32.50;;;;;;;;;;5060964;28;20329;-75
2022/12/05 07:55:38;;;;;;;79.37;31.93;;;;;;;;;;5063744;28;20267;-75
2022/12/05 07:58:04;;;;;;;77.30;30.27;;;;;;;;;;5057136;28;20299;-75
2022/12/05 08:00:30;;;;;;;70.57;29.10;;;;;;;;;;5055978;28;20299;-75
2022/12/05 08:02:56;;;;;;;72.70;29.93;;;;;;;;;;5067085;28;20259;-75
2022/12/05 08:05:22;;;;;;;79.17;31.30;;;;;;;;;;5049768;28;20666;-75
2022/12/05 08:07:48;;;;;;;71.47;30.07;;;;;;;;;;5063641;28;20032;-75
2022/12/05 08:10:14;;;;;;;72.30;29.77;;;;;;;;;;5062531;28;20274;-75
2022/12/05 08:12:40;;;;;;;68.60;30.03;;;;;;;;;;5064445;28;20285;-75
2022/12/05 08:15:09;;;;;;;66.80;29.27;;;;;;;;;;5058604;28;20862;-75
2022/12/05 08:17:37;;;;;;;67.07;29.40;;;;;;;;;;5049920;28;20708;-75
2022/12/05 08:20:03;;;;;;;63.07;29.90;;;;;;;;;;5066717;28;20287;-75
2022/12/05 08:22:29;;;;;;;64.93;28.30;;;;;;;;;;5059933;28;20280;-75
2022/12/05 08:24:55;;;;;;;55.13;26.57;;;;;;;;;;5055132;28;20726;-76
2022/12/05 08:27:21;;;;;;;57.33;29.40;;;;;;;;;;5055283;28;20333;-75
2022/12/05 08:29:47;;;;;;;54.20;27.20;;;;;;;;;;5065952;28;20663;-75
2022/12/05 08:32:16;;;;;;;58.47;26.50;;;;;;;;;;5059465;28;20275;-75
2022/12/05 08:34:44;;;;;;;56.77;25.30;;;;;;;;;;5064526;28;20255;-74
2022/12/05 08:37:10;;;;;;;50.33;25.93;;;;;;;;;;5065047;28;20270;-76
2022/12/05 08:39:36;;;;;;;57.73;27.27;;;;;;;;;;5046853;28;20306;-75
2022/12/05 08:42:02;;;;;;;47.00;25.90;;;;;;;;;;5054354;28;20299;-75
2022/12/05 08:44:29;;;;;;;48.23;24.27;;;;;;;;;;5065028;28;20261;-75
2022/12/05 08:46:55;;;;;;;43.27;22.90;;;;;;;;;;5054817;28;20260;-75
2022/12/05 08:49:23;;;;;;;52.37;25.37;;;;;;;;;;5059361;28;20778;-75
2022/12/05 08:51:50;;;;;;;49.93;26.17;;;;;;;;;;5068652;28;20268;-75
2022/12/05 08:54:16;;;;;;;52.60;24.80;;;;;;;;;;5059291;28;20315;-75
2022/12/05 08:56:42;;;;;;;45.80;25.20;;;;;;;;;;5056031;28;20707;-75
2022/12/05 08:59:08;;;;;;;45.27;24.17;;;;;;;;;;5065333;28;20275;-75
2022/12/05 09:01:37;;;;;;;49.70;25.27;;;;;;;;;;5062673;28;20263;-75
2022/12/05 09:04:06;;;;;;;54.30;24.37;;;;;;;;;;5056628;28;20267;-75
2022/12/05 09:06:33;;;;;;;52.87;24.97;;;;;;;;;;5054561;28;20271;-75
2022/12/05 09:09:01;;;;;;;54.20;28.03;;;;;;;;;;5054252;28;20271;-75
2022/12/05 09:11:30;;;;;;;48.83;23.93;;;;;;;;;;5054487;28;20275;-75
2022/12/05 09:13:57;;;;;;;45.03;24.63;;;;;;;;;;5043545;28;20266;-75
2022/12/05 09:16:30;;;;;;;51.53;26.07;;;;;;;;;;5056246;28;20317;-76
2022/12/05 09:18:56;;;;;;;;;;;;;;;;;;5054623;28;20712;-75
2022/12/05 09:21:27;;;;;;;46.30;23.53;;;;;;;;;;5054150;28;19972;-75
2022/12/05 09:23:53;;;;;;;46.07;23.27;;;;;;;;;;5054962;28;20021;-76
2022/12/05 09:26:26;;;;;;;45.93;23.40;;;;;;;;;;5056318;28;20286;-74
2022/12/05 09:28:52;;;;;;;45.47;24.33;;;;;;;;;;5062058;28;20274;-75
2022/12/05 09:31:19;;;;;;;45.03;23.47;;;;;;;;;;5052328;28;20696;-75
2022/12/05 09:33:46;;;;;;;45.17;25.40;;;;;;;;;;5054018;28;20271;-75
2022/12/05 09:36:14;;;;;;;37.83;22.60;;;;;;;;;;5054220;28;20256;-75
2022/12/05 09:38:40;;;;;;;37.30;20.67;;;;;;;;;;5064697;28;20263;-75
2022/12/05 09:41:20;;;;;;;45.03;22.83;;;;;;;;;;5053914;28;20279;-75
2022/12/05 09:43:59;;;;;;;42.80;23.27;;;;;;;;;;5050070;28;20799;-77
2022/12/05 09:46:25;;;;;;;38.43;22.33;;;;;;;;;;5048176;28;20259;-76
2022/12/05 09:48:51;;;;;;;38.50;21.17;;;;;;;;;;5058798;28;20333;-76
2022/12/05 09:51:17;;;;;;;34.77;20.93;;;;;;;;;;5053988;28;20029;-77
2022/12/05 09:53:44;;;;;;;38.23;22.53;;;;;;;;;;5053928;28;20263;-76
2022/12/05 09:56:30;;;;;;;38.97;21.17;;;;;;;;;;5055978;28;20314;-76
2022/12/05 09:59:02;;;;;;;37.63;21.00;;;;;;;;;;5059281;28;20258;-77
2022/12/05 10:01:34;;;;;;;34.63;20.48;;;;;;;;;;5051510;28;20263;-75
2022/12/05 10:04:18;;;;;;;31.85;19.00;;;;;;;;;;5056868;28;20025;-76
2022/12/05 10:06:49;;;;;;;33.27;19.70;;;;;;;;;;5062262;28;20017;-76
2022/12/05 10:09:19;;;;;;;33.33;19.30;;;;;;;;;;5066572;28;20703;-76
2022/12/05 10:11:53;;;;;;;32.10;18.93;;;;;;;;;;5043902;28;20337;-76
2022/12/05 10:14:50;;;;;;;31.03;18.97;;;;;;;;;;5062324;28;20653;-76
2022/12/05 10:17:20;;;;;;;35.37;21.30;;;;;;;;;;5056657;28;20333;-75
2022/12/05 10:19:47;;;;;;;35.03;20.70;;;;;;;;;;5057676;28;20028;-76
2022/12/05 10:22:16;;;;;;;32.90;19.63;;;;;;;;;;5074703;28;20028;-76
2022/12/05 10:24:48;;;;;;;39.73;22.47;;;;;;;;;;5077272;28;20036;-76
2022/12/05 10:27:18;;;;;;;41.00;22.40;;;;;;;;;;5056765;28;20048;-76
2022/12/05 10:30:06;;;;;;;43.70;23.37;;;;;;;;;;5062787;28;20033;-74
2022/12/05 10:32:49;;;;;;;76.47;39.73;;;;;;;;;;5069757;28;20348;-77
2022/12/05 10:35:35;;;;;;;48.17;25.77;;;;;;;;;;5056308;28;20036;-75
2022/12/05 10:38:05;;;;;;;39.53;21.53;;;;;;;;;;5049752;28;20352;-76
2022/12/05 10:40:37;;;;;;;44.23;23.63;;;;;;;;;;5060390;28;20615;-76
2022/12/05 10:43:04;;;;;;;41.75;22.45;;;;;;;;;;5060179;28;20372;-76
2022/12/05 10:45:30;;;;;;;38.23;21.00;;;;;;;;;;5064188;28;20340;-76
2022/12/05 10:47:59;;;;;;;34.77;20.50;;;;;;;;;;5057842;28;20025;-75
2022/12/05 10:50:30;;;;;;;32.10;19.60;;;;;;;;;;5054992;28;20028;-76
2022/12/05 10:53:00;;;;;;;36.70;21.77;;;;;;;;;;5075710;28;20033;-77
2022/12/05 10:55:29;;;;;;;35.13;19.60;;;;;;;;;;5059862;28;20037;-75
2022/12/05 10:58:15;;;;;;;33.97;20.60;;;;;;;;;;5048861;28;20267;-76
2022/12/05 11:00:47;;;;;;;46.37;21.73;;;;;;;;;;5062466;28;20037;-76
2022/12/05 11:03:34;;;;;;;36.47;21.98;;;;;;;;;;5058722;28;20071;-76
2022/12/05 11:06:01;;;;;;;35.33;20.57;;;;;;;;;;5073949;28;20518;-75
2022/12/05 11:08:29;;;;;;;35.53;20.87;;;;;;;;;;5057494;28;20099;-76
2022/12/05 11:11:03;;;;;;;32.23;20.13;;;;;;;;;;5068169;28;20119;-76
2022/12/05 11:13:30;;;;;;;30.43;20.03;;;;;;;;;;5072714;28;20033;-78
2022/12/05 11:15:56;;;;;;;39.87;21.63;;;;;;;;;;5045864;28;20044;-77
2022/12/05 11:18:25;;;;;;;40.90;23.37;;;;;;;;;;5047428;28;20041;-76
2022/12/05 11:20:51;;;;;;;33.93;19.83;;;;;;;;;;5048851;28;20057;-76
2022/12/05 11:23:36;;;;;;;38.53;21.43;;;;;;;;;;5056178;28;20029;-76
2022/12/05 11:26:03;;;;;;;38.00;22.20;;;;;;;;;;5047142;28;20041;-75
2022/12/05 11:28:31;;;;;;;36.97;22.07;;;;;;;;;;5045738;28;20030;-75
2022/12/05 11:30:59;;;;;;;42.97;23.33;;;;;;;;;;5057687;28;20044;-75
2022/12/05 11:33:26;;;;;;;37.60;22.47;;;;;;;;;;5045189;28;20028;-76
2022/12/05 11:35:53;;;;;;;37.20;19.87;;;;;;;;;;5060629;28;21020;-76
2022/12/05 11:38:21;;;;;;;32.67;20.17;;;;;;;;;;5058528;28;20267;-75
2022/12/05 11:41:11;;;;;;;31.73;18.33;;;;;;;;;;5046087;28;20021;-75
2022/12/05 11:43:37;;;;;;;34.67;20.30;;;;;;;;;;5053218;28;20275;-76
2022/12/05 11:46:03;;;;;;;29.97;19.77;;;;;;;;;;5047234;28;20294;-76
2022/12/05 11:48:48;;;;;;;34.23;20.63;;;;;;;;;;5055662;28;20029;-75
2022/12/05 11:51:14;;;;;;;32.50;19.87;;;;;;;;;;5051425;28;20622;-76
2022/12/05 11:53:59;;;;;;;32.83;18.80;;;;;;;;;;5056776;28;20286;-75
2022/12/05 11:56:33;;;;;;;39.23;22.43;;;;;;;;;;5047814;28;20029;-76
2022/12/05 11:59:18;;;;;;;32.67;20.37;;;;;;;;;;5061284;28;20367;-75
2022/12/05 12:01:51;;;;;;;38.77;23.40;;;;;;;;;;5062820;28;20024;-74
2022/12/05 12:04:23;;;;;;;37.83;22.80;;;;;;;;;;5045216;28;20279;-74
2022/12/05 12:06:49;;;;;;;;;;;;;;;;;;5064816;28;20044;-76
2022/12/05 12:09:32;;;;;;;36.40;21.73;;;;;;;;;;5045701;28;19940;-77
2022/12/05 12:11:58;;;;;;;;;;;;;;;;;;5045958;28;20036;-75
2022/12/05 12:14:43;;;;;;;40.37;21.10;;;;;;;;;;5046580;28;20256;-76
2022/12/05 12:17:15;;;;;;;41.97;22.83;;;;;;;;;;5060733;28;20044;-74
2022/12/05 12:20:00;;;;;;;121.57;63.55;;;;;;;;;;5054641;28;20370;-75
2022/12/05 12:22:45;;;;;;;40.67;23.00;;;;;;;;;;5062763;28;20056;-76
2022/12/05 12:25:29;;;;;;;42.10;25.10;;;;;;;;;;5045754;28;20274;-76
2022/12/05 12:28:04;;;;;;;38.23;22.43;;;;;;;;;;5045160;28;20297;-75
2022/12/05 12:30:43;;;;;;;51.57;33.97;;;;;;;;;;5054966;28;20279;-75
2022/12/05 12:33:29;;;;;;;36.13;24.27;;;;;;;;;;5047325;28;20284;-75
2022/12/05 12:36:01;;;;;;;36.23;21.33;;;;;;;;;;5024441;28;20275;-76
2022/12/05 12:38:42;;;;;;;35.60;23.05;;;;;;;;;;5050785;28;20361;-76
2022/12/05 12:41:29;;;;;;;35.27;22.17;;;;;;;;;;5062540;28;20028;-76
2022/12/05 12:44:14;;;;;;;31.40;18.70;;;;;;;;;;5045836;28;20476;-76
2022/12/05 12:47:19;;;;;;;35.77;22.00;;;;;;;;;;5057854;28;20118;-76
2022/12/05 12:49:51;;;;;;;31.33;19.80;;;;;;;;;;4971725;28;22099;-76
2022/12/05 12:52:22;;;;;;;31.05;19.13;;;;;;;;;;5035011;28;20276;-76
2022/12/05 12:54:48;;;;;;;33.90;20.27;;;;;;;;;;5059847;28;20025;-76
2022/12/05 12:57:19;;;;;;;31.37;18.93;;;;;;;;;;5044347;28;20029;-76
2022/12/05 12:59:54;;;;;;;29.03;18.97;;;;;;;;;;5055180;28;20025;-76
2022/12/05 13:02:26;;;;;;;29.07;18.63;;;;;;;;;;5061589;28;20299;-75
2022/12/05 13:04:54;;;;;;;30.42;19.60;;;;;;;;;;5056650;28;20261;-77
2022/12/05 13:07:40;;;;;;;34.23;21.33;;;;;;;;;;5062297;28;20025;-76
2022/12/05 13:10:27;;;;;;;30.97;18.30;;;;;;;;;;5049613;28;20363;-76
2022/12/05 13:12:54;;;;;;;26.70;18.63;;;;;;;;;;5035930;28;20279;-76
2022/12/05 13:15:32;;;;;;;30.90;19.93;;;;;;;;;;5060731;28;20287;-76
2022/12/05 13:17:58;;;;;;;28.87;18.50;;;;;;;;;;5046133;28;20264;-76
2022/12/05 13:20:27;;;;;;;31.30;19.73;;;;;;;;;;5062355;28;20739;-76
2022/12/05 13:22:53;;;;;;;34.20;20.23;;;;;;;;;;5055323;28;20328;-76
2022/12/05 13:25:21;;;;;;;34.03;21.47;;;;;;;;;;5056294;28;20584;-76
2022/12/05 13:27:55;;;;;;;34.17;20.73;;;;;;;;;;5060610;28;20278;-76
2022/12/05 13:30:21;;;;;;;36.10;20.10;;;;;;;;;;5055875;28;20263;-76
2022/12/05 13:32:54;;;;;;;37.40;21.23;;;;;;;;;;5061128;28;20264;-76
2022/12/05 13:43:54;;;;;;;35.90;22.23;;;;;;;;;;5052027;28;20342;-76
2022/12/05 13:46:24;;;;;;;37.17;21.30;;;;;;;;;;5059131;28;20398;-76
2022/12/05 13:48:50;;;;;;;34.63;22.50;;;;;;;;;;5053785;28;20252;-76
2022/12/05 13:51:30;;;;;;;38.07;21.70;;;;;;;;;;5058328;28;20256;-76
2022/12/05 13:54:10;;;;;;;38.40;22.30;;;;;;;;;;5053628;28;20726;-76
2022/12/05 13:56:45;;;;;;;36.57;22.00;;;;;;;;;;5053871;28;20279;-76
2022/12/05 13:59:14;;;;;;;38.10;20.97;;;;;;;;;;5053765;28;20279;-76
2022/12/05 14:01:45;;;;;;;40.27;21.17;;;;;;;;;;5053969;28;20267;-76
2022/12/05 14:04:31;;;;;;;34.63;21.10;;;;;;;;;;5046753;28;20251;-76
2022/12/05 14:06:57;;;;;;;41.03;23.30;;;;;;;;;;5043383;28;20695;-76
2022/12/05 14:09:28;;;;;;;41.13;24.93;;;;;;;;;;5053859;28;20329;-76
2022/12/05 14:12:27;;;;;;;45.17;26.80;;;;;;;;;;5061863;28;20295;-76
2022/12/05 14:14:56;;;;;;;41.03;25.03;;;;;;;;;;5067470;28;20255;-77
2022/12/05 14:17:53;;;;;;;40.83;23.20;;;;;;;;;;5054779;28;20275;-76
2022/12/05 14:20:28;;;;;;;47.77;24.70;;;;;;;;;;5045491;28;20901;-76
2022/12/05 14:23:07;;;;;;;38.00;22.37;;;;;;;;;;5058693;28;20278;-76
2022/12/05 14:25:44;;;;;;;35.17;22.27;;;;;;;;;;5070312;28;20271;-76
2022/12/05 14:28:20;;;;;;;33.10;20.47;;;;;;;;;;5055272;28;20259;-76
2022/12/05 14:30:49;;;;;;;42.33;21.90;;;;;;;;;;5068909;28;20271;-76
2022/12/05 14:33:16;;;;;;;35.07;20.87;;;;;;;;;;5063111;28;20354;-77
2022/12/05 14:35:47;;;;;;;38.73;22.50;;;;;;;;;;5059267;28;20274;-76
2022/12/05 14:38:19;;;;;;;37.37;21.93;;;;;;;;;;5064898;28;20697;-76
2022/12/05 14:40:46;;;;;;;36.75;22.10;;;;;;;;;;5065562;28;20279;-77
2022/12/05 14:43:27;;;;;;;40.33;22.27;;;;;;;;;;5048433;28;20021;-77
2022/12/05 14:45:53;;;;;;;36.97;21.87;;;;;;;;;;5056501;28;20267;-77
2022/12/05 14:48:19;;;;;;;38.23;22.03;;;;;;;;;;5064105;28;20274;-76
2022/12/05 14:50:47;;;;;;;38.37;23.27;;;;;;;;;;5053492;28;20036;-76
2022/12/05 14:53:31;;;;;;;38.70;22.53;;;;;;;;;;5059351;28;20445;-77